sensor_id;sensor_type;location;lat;lon;timestamp;temperature;humidity
20174;DHT22;10246;50.620;7.232;2023-02-01T00:02:03;6.80;18.00
20174;DHT22;10246;50.620;7.232;2023-02-01T00:04:30;6.70;18.00
20174;DHT22;10246;50.620;7.232;2023-02-01T00:06:57;6.70;18.40
20174;DHT22;10246;50.620;7.232;2023-02-01T00:09:23;6.70;18.70
20174;DHT22;10246;50.620;7.232;2023-02-01T00:11:50;6.70;19.00
20174;DHT22;10246;50.620;7.232;2023-02-01T00:14:18;6.70;18.80
20174;DHT22;10246;50.620;7.232;2023-02-01T00:16:45;6.70;18.70
20174;DHT22;10246;50.620;7.232;2023-02-01T00:19:14;6.70;19.10
20174;DHT22;10246;50.620;7.232;2023-02-01T00:21:41;6.70;18.60
20174;DHT22;10246;50.620;7.232;2023-02-01T00:24:09;6.70;18.70
20174;DHT22;10246;50.620;7.232;2023-02-01T00:26:38;6.80;18.40
20174;DHT22;10246;50.620;7.232;2023-02-01T00:29:08;6.80;18.00
20174;DHT22;10246;50.620;7.232;2023-02-01T00:31:38;6.70;18.70
20174;DHT22;10246;50.620;7.232;2023-02-01T00:34:06;6.80;17.80
20174;DHT22;10246;50.620;7.232;2023-02-01T00:36:34;6.80;17.70
20174;DHT22;10246;50.620;7.232;2023-02-01T00:39:01;6.90;17.10
20174;DHT22;10246;50.620;7.232;2023-02-01T00:41:27;6.90;16.60
20174;DHT22;10246;50.620;7.232;2023-02-01T00:43:54;6.90;15.70
20174;DHT22;10246;50.620;7.232;2023-02-01T00:46:21;7.10;14.20
20174;DHT22;10246;50.620;7.232;2023-02-01T00:48:49;7.10;14.00
20174;DHT22;10246;50.620;7.232;2023-02-01T00:51:18;7.20;13.00
20174;DHT22;10246;50.620;7.232;2023-02-01T00:53:45;7.30;12.30
20174;DHT22;10246;50.620;7.232;2023-02-01T00:56:12;7.30;11.60
20174;DHT22;10246;50.620;7.232;2023-02-01T00:58:39;7.40;10.40
20174;DHT22;10246;50.620;7.232;2023-02-01T01:01:08;7.40;9.40
20174;DHT22;10246;50.620;7.232;2023-02-01T01:03:37;7.50;8.70
20174;DHT22;10246;50.620;7.232;2023-02-01T01:06:08;7.50;8.70
20174;DHT22;10246;50.620;7.232;2023-02-01T01:08:35;7.60;8.00
20174;DHT22;10246;50.620;7.232;2023-02-01T01:11:05;7.50;7.10
20174;DHT22;10246;50.620;7.232;2023-02-01T01:13:32;7.60;6.70
20174;DHT22;10246;50.620;7.232;2023-02-01T01:16:00;7.60;5.40
20174;DHT22;10246;50.620;7.232;2023-02-01T01:18:28;7.70;2.90
20174;DHT22;10246;50.620;7.232;2023-02-01T01:20:55;7.70;3.70
20174;DHT22;10246;50.620;7.232;2023-02-01T01:23:24;7.70;3.20
20174;DHT22;10246;50.620;7.232;2023-02-01T01:25:51;7.80;2.20
20174;DHT22;10246;50.620;7.232;2023-02-01T01:28:18;7.70;2.20
20174;DHT22;10246;50.620;7.232;2023-02-01T01:30:44;7.80;2.00
20174;DHT22;10246;50.620;7.232;2023-02-01T01:33:11;7.70;2.20
20174;DHT22;10246;50.620;7.232;2023-02-01T01:35:38;7.70;2.80
20174;DHT22;10246;50.620;7.232;2023-02-01T01:38:05;7.70;1.90
20174;DHT22;10246;50.620;7.232;2023-02-01T01:40:33;7.70;1.00
20174;DHT22;10246;50.620;7.232;2023-02-01T01:43:00;7.80;1.00
20174;DHT22;10246;50.620;7.232;2023-02-01T01:45:29;7.70;1.00
20174;DHT22;10246;50.620;7.232;2023-02-01T01:47:57;7.70;1.00
20174;DHT22;10246;50.620;7.232;2023-02-01T01:50:31;7.70;1.00
20174;DHT22;10246;50.620;7.232;2023-02-01T01:53:01;7.70;1.00
20174;DHT22;10246;50.620;7.232;2023-02-01T01:55:33;7.70;1.00
20174;DHT22;10246;50.620;7.232;2023-02-01T01:58:03;7.70;1.00
20174;DHT22;10246;50.620;7.232;2023-02-01T02:00:31;7.70;1.00
20174;DHT22;10246;50.620;7.232;2023-02-01T02:03:03;7.70;1.00
20174;DHT22;10246;50.620;7.232;2023-02-01T02:05:33;7.70;1.00
20174;DHT22;10246;50.620;7.232;2023-02-01T02:08:00;7.80;1.00
20174;DHT22;10246;50.620;7.232;2023-02-01T02:10:27;7.80;1.00
20174;DHT22;10246;50.620;7.232;2023-02-01T02:13:09;7.70;1.00
20174;DHT22;10246;50.620;7.232;2023-02-01T02:15:41;7.80;1.00
20174;DHT22;10246;50.620;7.232;2023-02-01T02:18:15;7.70;1.00
20174;DHT22;10246;50.620;7.232;2023-02-01T02:20:58;7.70;1.00
20174;DHT22;10246;50.620;7.232;2023-02-01T02:23:54;7.60;1.00
20174;DHT22;10246;50.620;7.232;2023-02-01T02:26:51;7.60;1.00
20174;DHT22;10246;50.620;7.232;2023-02-01T02:30:04;7.70;1.00
20174;DHT22;10246;50.620;7.232;2023-02-01T02:35:41;7.60;1.00
20174;DHT22;10246;50.620;7.232;2023-02-01T02:38:17;7.70;1.00
20174;DHT22;10246;50.620;7.232;2023-02-01T02:40:51;7.70;1.00
20174;DHT22;10246;50.620;7.232;2023-02-01T02:43:21;7.70;1.00
20174;DHT22;10246;50.620;7.232;2023-02-01T02:46:12;7.70;1.00
20174;DHT22;10246;50.620;7.232;2023-02-01T02:49:04;7.70;1.00
20174;DHT22;10246;50.620;7.232;2023-02-01T02:51:38;7.70;1.00
20174;DHT22;10246;50.620;7.232;2023-02-01T02:54:28;7.70;1.00
20174;DHT22;10246;50.620;7.232;2023-02-01T02:57:16;7.60;1.00
20174;DHT22;10246;50.620;7.232;2023-02-01T03:00:04;7.50;2.20
20174;DHT22;10246;50.620;7.232;2023-02-01T03:02:49;7.50;1.10
20174;DHT22;10246;50.620;7.232;2023-02-01T03:05:33;7.50;1.00
20174;DHT22;10246;50.620;7.232;2023-02-01T03:08:05;7.50;1.10
20174;DHT22;10246;50.620;7.232;2023-02-01T03:10:42;7.50;1.20
20174;DHT22;10246;50.620;7.232;2023-02-01T03:13:13;7.60;1.00
20174;DHT22;10246;50.620;7.232;2023-02-01T03:15:47;7.50;1.00
20174;DHT22;10246;50.620;7.232;2023-02-01T03:18:20;7.50;1.00
20174;DHT22;10246;50.620;7.232;2023-02-01T03:20:50;7.50;1.60
20174;DHT22;10246;50.620;7.232;2023-02-01T03:23:22;7.60;1.00
20174;DHT22;10246;50.620;7.232;2023-02-01T03:25:52;7.60;1.00
20174;DHT22;10246;50.620;7.232;2023-02-01T03:28:22;7.50;1.00
20174;DHT22;10246;50.620;7.232;2023-02-01T03:30:49;7.50;2.30
20174;DHT22;10246;50.620;7.232;2023-02-01T03:33:19;7.40;2.50
20174;DHT22;10246;50.620;7.232;2023-02-01T03:35:55;7.40;1.00
20174;DHT22;10246;50.620;7.232;2023-02-01T03:38:29;7.50;1.00
20174;DHT22;10246;50.620;7.232;2023-02-01T03:41:03;7.40;1.10
20174;DHT22;10246;50.620;7.232;2023-02-01T03:43:38;7.40;1.10
20174;DHT22;10246;50.620;7.232;2023-02-01T03:46:12;7.40;2.30
20174;DHT22;10246;50.620;7.232;2023-02-01T03:48:44;7.40;1.40
20174;DHT22;10246;50.620;7.232;2023-02-01T03:51:11;7.40;1.10
20174;DHT22;10246;50.620;7.232;2023-02-01T03:53:41;7.30;1.60
20174;DHT22;10246;50.620;7.232;2023-02-01T03:56:11;7.40;1.90
20174;DHT22;10246;50.620;7.232;2023-02-01T03:58:38;7.40;1.10
20174;DHT22;10246;50.620;7.232;2023-02-01T04:01:05;7.50;1.00
20174;DHT22;10246;50.620;7.232;2023-02-01T04:03:32;7.50;1.00
20174;DHT22;10246;50.620;7.232;2023-02-01T04:05:59;7.50;1.00
20174;DHT22;10246;50.620;7.232;2023-02-01T04:08:25;7.60;1.00
20174;DHT22;10246;50.620;7.232;2023-02-01T04:10:54;7.70;1.00
20174;DHT22;10246;50.620;7.232;2023-02-01T04:13:20;7.70;1.00
20174;DHT22;10246;50.620;7.232;2023-02-01T04:15:47;7.60;1.00
20174;DHT22;10246;50.620;7.232;2023-02-01T04:18:16;7.70;1.00
20174;DHT22;10246;50.620;7.232;2023-02-01T04:20:43;7.70;1.00
20174;DHT22;10246;50.620;7.232;2023-02-01T04:23:10;7.70;1.00
20174;DHT22;10246;50.620;7.232;2023-02-01T04:25:38;7.70;1.00
20174;DHT22;10246;50.620;7.232;2023-02-01T04:28:06;7.80;1.00
20174;DHT22;10246;50.620;7.232;2023-02-01T04:30:33;7.80;1.00
20174;DHT22;10246;50.620;7.232;2023-02-01T04:32:59;7.80;1.00
20174;DHT22;10246;50.620;7.232;2023-02-01T04:35:28;7.80;1.00
20174;DHT22;10246;50.620;7.232;2023-02-01T04:37:55;7.80;1.00
20174;DHT22;10246;50.620;7.232;2023-02-01T04:40:22;7.80;1.00
20174;DHT22;10246;50.620;7.232;2023-02-01T04:42:49;7.80;1.00
20174;DHT22;10246;50.620;7.232;2023-02-01T04:45:17;7.70;1.00
20174;DHT22;10246;50.620;7.232;2023-02-01T04:47:44;7.70;1.00
20174;DHT22;10246;50.620;7.232;2023-02-01T04:50:10;7.60;1.00
20174;DHT22;10246;50.620;7.232;2023-02-01T04:52:37;7.60;1.00
20174;DHT22;10246;50.620;7.232;2023-02-01T04:55:09;7.60;1.00
20174;DHT22;10246;50.620;7.232;2023-02-01T04:57:36;7.50;1.00
20174;DHT22;10246;50.620;7.232;2023-02-01T05:00:05;7.60;1.00
20174;DHT22;10246;50.620;7.232;2023-02-01T05:02:34;7.60;1.00
20174;DHT22;10246;50.620;7.232;2023-02-01T05:05:01;7.50;1.00
20174;DHT22;10246;50.620;7.232;2023-02-01T05:07:28;7.40;1.00
20174;DHT22;10246;50.620;7.232;2023-02-01T05:09:55;7.40;1.00
20174;DHT22;10246;50.620;7.232;2023-02-01T05:12:22;7.40;1.00
20174;DHT22;10246;50.620;7.232;2023-02-01T05:15:21;7.30;1.00
20174;DHT22;10246;50.620;7.232;2023-02-01T05:17:49;7.40;1.00
20174;DHT22;10246;50.620;7.232;2023-02-01T05:20:16;7.30;1.00
20174;DHT22;10246;50.620;7.232;2023-02-01T05:22:43;7.30;1.00
20174;DHT22;10246;50.620;7.232;2023-02-01T05:25:10;7.20;1.00
20174;DHT22;10246;50.620;7.232;2023-02-01T05:27:37;7.20;1.00
20174;DHT22;10246;50.620;7.232;2023-02-01T05:30:05;7.20;1.00
20174;DHT22;10246;50.620;7.232;2023-02-01T05:32:32;7.10;1.00
20174;DHT22;10246;50.620;7.232;2023-02-01T05:35:01;7.20;1.00
20174;DHT22;10246;50.620;7.232;2023-02-01T05:37:27;7.20;1.00
20174;DHT22;10246;50.620;7.232;2023-02-01T05:39:54;7.10;1.00
20174;DHT22;10246;50.620;7.232;2023-02-01T05:42:22;7.10;1.00
20174;DHT22;10246;50.620;7.232;2023-02-01T05:44:49;7.10;1.00
20174;DHT22;10246;50.620;7.232;2023-02-01T05:47:15;7.10;1.00
20174;DHT22;10246;50.620;7.232;2023-02-01T05:49:42;7.00;1.00
20174;DHT22;10246;50.620;7.232;2023-02-01T05:52:10;7.00;1.00
20174;DHT22;10246;50.620;7.232;2023-02-01T05:54:37;7.10;1.00
20174;DHT22;10246;50.620;7.232;2023-02-01T05:57:04;7.10;1.00
20174;DHT22;10246;50.620;7.232;2023-02-01T05:59:31;7.00;1.00
20174;DHT22;10246;50.620;7.232;2023-02-01T06:01:57;6.90;1.00
20174;DHT22;10246;50.620;7.232;2023-02-01T06:04:24;6.80;1.00
20174;DHT22;10246;50.620;7.232;2023-02-01T06:06:51;6.90;1.00
20174;DHT22;10246;50.620;7.232;2023-02-01T06:09:19;7.00;1.00
20174;DHT22;10246;50.620;7.232;2023-02-01T06:11:46;7.00;1.00
20174;DHT22;10246;50.620;7.232;2023-02-01T06:14:13;7.00;1.00
20174;DHT22;10246;50.620;7.232;2023-02-01T06:16:40;6.90;1.00
20174;DHT22;10246;50.620;7.232;2023-02-01T06:19:07;7.00;1.00
20174;DHT22;10246;50.620;7.232;2023-02-01T06:21:35;6.90;1.00
20174;DHT22;10246;50.620;7.232;2023-02-01T06:24:02;6.90;1.00
20174;DHT22;10246;50.620;7.232;2023-02-01T06:26:30;7.00;1.00
20174;DHT22;10246;50.620;7.232;2023-02-01T06:28:57;7.00;1.00
20174;DHT22;10246;50.620;7.232;2023-02-01T06:31:24;6.80;1.00
20174;DHT22;10246;50.620;7.232;2023-02-01T06:33:51;6.70;1.00
20174;DHT22;10246;50.620;7.232;2023-02-01T06:36:19;6.70;1.00
20174;DHT22;10246;50.620;7.232;2023-02-01T06:38:47;6.70;1.00
20174;DHT22;10246;50.620;7.232;2023-02-01T06:41:13;6.60;1.00
20174;DHT22;10246;50.620;7.232;2023-02-01T06:43:41;6.70;1.00
20174;DHT22;10246;50.620;7.232;2023-02-01T06:46:11;6.60;1.00
20174;DHT22;10246;50.620;7.232;2023-02-01T06:48:39;6.60;1.00
20174;DHT22;10246;50.620;7.232;2023-02-01T06:51:06;6.50;1.00
20174;DHT22;10246;50.620;7.232;2023-02-01T06:53:32;6.50;1.00
20174;DHT22;10246;50.620;7.232;2023-02-01T06:56:01;6.60;1.00
20174;DHT22;10246;50.620;7.232;2023-02-01T06:58:29;6.40;1.00
20174;DHT22;10246;50.620;7.232;2023-02-01T07:01:03;6.40;1.00
20174;DHT22;10246;50.620;7.232;2023-02-01T07:03:30;6.50;1.00
20174;DHT22;10246;50.620;7.232;2023-02-01T07:05:58;6.50;1.00
20174;DHT22;10246;50.620;7.232;2023-02-01T07:08:25;6.60;1.00
20174;DHT22;10246;50.620;7.232;2023-02-01T07:10:52;6.60;1.00
20174;DHT22;10246;50.620;7.232;2023-02-01T07:13:19;6.60;1.00
20174;DHT22;10246;50.620;7.232;2023-02-01T07:15:46;6.50;1.00
20174;DHT22;10246;50.620;7.232;2023-02-01T07:18:14;6.50;1.00
20174;DHT22;10246;50.620;7.232;2023-02-01T07:20:41;6.50;1.00
20174;DHT22;10246;50.620;7.232;2023-02-01T07:23:09;6.50;1.00
20174;DHT22;10246;50.620;7.232;2023-02-01T07:25:36;6.60;1.00
20174;DHT22;10246;50.620;7.232;2023-02-01T07:28:03;6.70;1.00
20174;DHT22;10246;50.620;7.232;2023-02-01T07:30:30;6.70;1.00
20174;DHT22;10246;50.620;7.232;2023-02-01T07:32:57;6.80;1.00
20174;DHT22;10246;50.620;7.232;2023-02-01T07:35:27;6.80;1.00
20174;DHT22;10246;50.620;7.232;2023-02-01T07:37:54;6.80;1.00
20174;DHT22;10246;50.620;7.232;2023-02-01T07:40:23;6.70;1.00
20174;DHT22;10246;50.620;7.232;2023-02-01T07:42:54;6.70;1.00
20174;DHT22;10246;50.620;7.232;2023-02-01T07:45:21;6.80;1.00
20174;DHT22;10246;50.620;7.232;2023-02-01T07:47:48;6.80;1.00
20174;DHT22;10246;50.620;7.232;2023-02-01T07:50:15;6.90;1.00
20174;DHT22;10246;50.620;7.232;2023-02-01T07:52:43;6.90;1.00
20174;DHT22;10246;50.620;7.232;2023-02-01T07:55:10;7.00;1.00
20174;DHT22;10246;50.620;7.232;2023-02-01T07:57:37;6.90;1.00
20174;DHT22;10246;50.620;7.232;2023-02-01T08:00:05;7.00;1.00
20174;DHT22;10246;50.620;7.232;2023-02-01T08:02:49;6.90;1.00
20174;DHT22;10246;50.620;7.232;2023-02-01T08:05:16;7.00;1.00
20174;DHT22;10246;50.620;7.232;2023-02-01T08:07:44;7.00;1.00
20174;DHT22;10246;50.620;7.232;2023-02-01T08:10:15;7.00;1.00
20174;DHT22;10246;50.620;7.232;2023-02-01T08:12:42;7.10;1.00
20174;DHT22;10246;50.620;7.232;2023-02-01T08:15:13;7.10;1.00
20174;DHT22;10246;50.620;7.232;2023-02-01T08:17:40;7.10;1.00
20174;DHT22;10246;50.620;7.232;2023-02-01T08:20:07;7.10;1.00
20174;DHT22;10246;50.620;7.232;2023-02-01T08:22:34;7.10;1.00
20174;DHT22;10246;50.620;7.232;2023-02-01T08:25:03;7.10;1.00
20174;DHT22;10246;50.620;7.232;2023-02-01T08:27:32;7.20;1.00
20174;DHT22;10246;50.620;7.232;2023-02-01T08:29:59;7.20;1.00
20174;DHT22;10246;50.620;7.232;2023-02-01T08:32:26;7.30;1.00
20174;DHT22;10246;50.620;7.232;2023-02-01T08:34:53;7.30;1.00
20174;DHT22;10246;50.620;7.232;2023-02-01T08:37:20;7.20;1.00
20174;DHT22;10246;50.620;7.232;2023-02-01T08:39:47;7.30;1.00
20174;DHT22;10246;50.620;7.232;2023-02-01T08:42:17;7.40;1.00
20174;DHT22;10246;50.620;7.232;2023-02-01T08:45:01;7.40;1.00
20174;DHT22;10246;50.620;7.232;2023-02-01T08:47:28;7.40;1.00
20174;DHT22;10246;50.620;7.232;2023-02-01T08:49:55;7.50;1.00
20174;DHT22;10246;50.620;7.232;2023-02-01T08:52:22;7.40;1.00
20174;DHT22;10246;50.620;7.232;2023-02-01T08:54:49;7.40;1.00
20174;DHT22;10246;50.620;7.232;2023-02-01T08:57:17;7.40;1.00
20174;DHT22;10246;50.620;7.232;2023-02-01T08:59:44;7.40;1.00
20174;DHT22;10246;50.620;7.232;2023-02-01T09:02:12;7.50;1.00
20174;DHT22;10246;50.620;7.232;2023-02-01T09:04:40;7.50;1.00
20174;DHT22;10246;50.620;7.232;2023-02-01T09:07:07;7.50;1.00
20174;DHT22;10246;50.620;7.232;2023-02-01T09:09:34;7.60;1.00
20174;DHT22;10246;50.620;7.232;2023-02-01T09:12:01;7.60;1.00
20174;DHT22;10246;50.620;7.232;2023-02-01T09:14:30;7.60;1.00
20174;DHT22;10246;50.620;7.232;2023-02-01T09:16:57;7.70;1.00
20174;DHT22;10246;50.620;7.232;2023-02-01T09:19:24;7.70;1.00
20174;DHT22;10246;50.620;7.232;2023-02-01T09:21:50;7.80;1.00
20174;DHT22;10246;50.620;7.232;2023-02-01T09:24:17;7.80;1.00
20174;DHT22;10246;50.620;7.232;2023-02-01T09:26:45;7.80;1.00
20174;DHT22;10246;50.620;7.232;2023-02-01T09:29:12;7.80;1.00
20174;DHT22;10246;50.620;7.232;2023-02-01T09:31:40;7.80;1.00
20174;DHT22;10246;50.620;7.232;2023-02-01T09:34:07;7.80;1.00
20174;DHT22;10246;50.620;7.232;2023-02-01T09:36:34;7.80;1.00
20174;DHT22;10246;50.620;7.232;2023-02-01T09:39:02;7.80;1.00
20174;DHT22;10246;50.620;7.232;2023-02-01T09:41:46;7.90;1.00
20174;DHT22;10246;50.620;7.232;2023-02-01T09:44:23;7.80;1.00
20174;DHT22;10246;50.620;7.232;2023-02-01T09:46:58;7.90;1.00
20174;DHT22;10246;50.620;7.232;2023-02-01T09:49:31;7.90;1.00
20174;DHT22;10246;50.620;7.232;2023-02-01T09:52:01;7.90;1.00
20174;DHT22;10246;50.620;7.232;2023-02-01T09:54:33;8.00;1.00
20174;DHT22;10246;50.620;7.232;2023-02-01T09:57:08;7.90;1.00
20174;DHT22;10246;50.620;7.232;2023-02-01T09:59:40;8.00;1.00
20174;DHT22;10246;50.620;7.232;2023-02-01T10:02:14;8.00;1.00
20174;DHT22;10246;50.620;7.232;2023-02-01T10:04:42;8.00;1.00
20174;DHT22;10246;50.620;7.232;2023-02-01T10:07:17;8.00;1.00
20174;DHT22;10246;50.620;7.232;2023-02-01T10:09:56;8.00;1.00
20174;DHT22;10246;50.620;7.232;2023-02-01T10:12:36;8.00;1.00
20174;DHT22;10246;50.620;7.232;2023-02-01T10:15:18;8.00;1.00
20174;DHT22;10246;50.620;7.232;2023-02-01T10:18:00;8.00;1.00
20174;DHT22;10246;50.620;7.232;2023-02-01T10:20:35;8.00;1.00
20174;DHT22;10246;50.620;7.232;2023-02-01T10:23:15;8.10;1.00
20174;DHT22;10246;50.620;7.232;2023-02-01T10:25:54;8.10;1.00
20174;DHT22;10246;50.620;7.232;2023-02-01T10:28:22;8.10;1.00
20174;DHT22;10246;50.620;7.232;2023-02-01T10:30:56;8.20;1.00
20174;DHT22;10246;50.620;7.232;2023-02-01T10:33:26;8.20;1.00
20174;DHT22;10246;50.620;7.232;2023-02-01T10:35:58;8.20;1.00
20174;DHT22;10246;50.620;7.232;2023-02-01T10:38:30;8.30;1.00
20174;DHT22;10246;50.620;7.232;2023-02-01T10:41:02;8.30;1.00
20174;DHT22;10246;50.620;7.232;2023-02-01T10:43:30;8.40;1.00
20174;DHT22;10246;50.620;7.232;2023-02-01T10:45:59;8.40;1.00
20174;DHT22;10246;50.620;7.232;2023-02-01T10:48:27;8.40;1.00
20174;DHT22;10246;50.620;7.232;2023-02-01T10:50:58;8.50;1.00
20174;DHT22;10246;50.620;7.232;2023-02-01T10:53:31;8.60;1.00
20174;DHT22;10246;50.620;7.232;2023-02-01T10:56:06;8.60;1.00
20174;DHT22;10246;50.620;7.232;2023-02-01T10:58:33;8.60;1.00
20174;DHT22;10246;50.620;7.232;2023-02-01T11:01:04;8.80;1.00
20174;DHT22;10246;50.620;7.232;2023-02-01T11:03:36;8.90;1.00
20174;DHT22;10246;50.620;7.232;2023-02-01T11:06:13;8.90;1.00
20174;DHT22;10246;50.620;7.232;2023-02-01T11:08:46;9.00;1.00
20174;DHT22;10246;50.620;7.232;2023-02-01T11:11:13;9.10;1.00
20174;DHT22;10246;50.620;7.232;2023-02-01T11:13:41;9.30;1.00
20174;DHT22;10246;50.620;7.232;2023-02-01T11:16:13;9.30;1.00
20174;DHT22;10246;50.620;7.232;2023-02-01T11:18:42;9.30;1.00
20174;DHT22;10246;50.620;7.232;2023-02-01T11:21:09;9.20;1.00
20174;DHT22;10246;50.620;7.232;2023-02-01T11:23:41;9.20;1.00
20174;DHT22;10246;50.620;7.232;2023-02-01T11:26:12;9.10;1.00
20174;DHT22;10246;50.620;7.232;2023-02-01T11:28:42;9.10;1.00
20174;DHT22;10246;50.620;7.232;2023-02-01T11:31:12;9.00;1.00
20174;DHT22;10246;50.620;7.232;2023-02-01T11:33:48;9.10;1.00
20174;DHT22;10246;50.620;7.232;2023-02-01T11:36:19;9.10;1.00
20174;DHT22;10246;50.620;7.232;2023-02-01T11:38:52;9.10;1.00
20174;DHT22;10246;50.620;7.232;2023-02-01T11:41:25;9.00;1.00
20174;DHT22;10246;50.620;7.232;2023-02-01T11:43:54;9.10;1.00
20174;DHT22;10246;50.620;7.232;2023-02-01T11:46:24;9.10;1.00
20174;DHT22;10246;50.620;7.232;2023-02-01T11:48:54;9.10;1.00
20174;DHT22;10246;50.620;7.232;2023-02-01T11:51:32;9.00;1.00
20174;DHT22;10246;50.620;7.232;2023-02-01T11:54:21;9.00;1.00
20174;DHT22;10246;50.620;7.232;2023-02-01T11:57:02;9.00;1.00
20174;DHT22;10246;50.620;7.232;2023-02-01T11:59:46;9.10;1.00
20174;DHT22;10246;50.620;7.232;2023-02-01T12:02:35;9.10;1.00
20174;DHT22;10246;50.620;7.232;2023-02-01T12:05:29;9.00;1.00
20174;DHT22;10246;50.620;7.232;2023-02-01T12:08:10;9.00;1.00
20174;DHT22;10246;50.620;7.232;2023-02-01T12:10:50;9.10;1.00
20174;DHT22;10246;50.620;7.232;2023-02-01T12:13:28;9.10;1.00
20174;DHT22;10246;50.620;7.232;2023-02-01T12:16:11;9.10;1.00
20174;DHT22;10246;50.620;7.232;2023-02-01T12:18:57;9.20;1.00
20174;DHT22;10246;50.620;7.232;2023-02-01T12:21:40;9.20;1.00
20174;DHT22;10246;50.620;7.232;2023-02-01T12:24:35;9.10;1.00
20174;DHT22;10246;50.620;7.232;2023-02-01T12:27:33;9.10;1.00
20174;DHT22;10246;50.620;7.232;2023-02-01T12:30:25;9.20;1.00
20174;DHT22;10246;50.620;7.232;2023-02-01T12:33:06;9.30;1.00
20174;DHT22;10246;50.620;7.232;2023-02-01T12:35:42;9.30;1.00
20174;DHT22;10246;50.620;7.232;2023-02-01T12:38:25;9.20;1.00
20174;DHT22;10246;50.620;7.232;2023-02-01T12:41:06;9.30;1.00
20174;DHT22;10246;50.620;7.232;2023-02-01T12:43:38;9.20;1.00
20174;DHT22;10246;50.620;7.232;2023-02-01T12:46:09;9.30;1.00
20174;DHT22;10246;50.620;7.232;2023-02-01T12:48:41;9.30;1.00
20174;DHT22;10246;50.620;7.232;2023-02-01T12:51:12;9.30;1.00
20174;DHT22;10246;50.620;7.232;2023-02-01T12:53:46;9.30;1.00
20174;DHT22;10246;50.620;7.232;2023-02-01T12:56:22;9.40;1.00
20174;DHT22;10246;50.620;7.232;2023-02-01T12:58:51;9.50;1.00
20174;DHT22;10246;50.620;7.232;2023-02-01T13:01:22;9.40;1.00
20174;DHT22;10246;50.620;7.232;2023-02-01T13:03:57;9.50;1.00
20174;DHT22;10246;50.620;7.232;2023-02-01T13:06:29;9.50;1.00
20174;DHT22;10246;50.620;7.232;2023-02-01T13:09:15;9.40;1.00
20174;DHT22;10246;50.620;7.232;2023-02-01T13:11:45;9.40;1.00
20174;DHT22;10246;50.620;7.232;2023-02-01T13:14:22;9.40;1.00
20174;DHT22;10246;50.620;7.232;2023-02-01T13:16:53;9.50;1.00
20174;DHT22;10246;50.620;7.232;2023-02-01T13:19:26;9.40;1.00
20174;DHT22;10246;50.620;7.232;2023-02-01T13:21:58;9.50;1.00
20174;DHT22;10246;50.620;7.232;2023-02-01T13:24:32;9.50;1.00
20174;DHT22;10246;50.620;7.232;2023-02-01T13:27:01;9.40;1.00
20174;DHT22;10246;50.620;7.232;2023-02-01T13:29:29;9.40;1.00
20174;DHT22;10246;50.620;7.232;2023-02-01T13:32:09;9.40;1.00
20174;DHT22;10246;50.620;7.232;2023-02-01T13:38:00;9.30;1.00
20174;DHT22;10246;50.620;7.232;2023-02-01T13:40:39;9.40;1.00
20174;DHT22;10246;50.620;7.232;2023-02-01T13:43:12;9.40;1.00
20174;DHT22;10246;50.620;7.232;2023-02-01T13:45:46;9.30;1.00
20174;DHT22;10246;50.620;7.232;2023-02-01T13:48:21;9.30;1.00
20174;DHT22;10246;50.620;7.232;2023-02-01T13:50:52;9.30;1.00
20174;DHT22;10246;50.620;7.232;2023-02-01T13:53:25;9.30;1.00
20174;DHT22;10246;50.620;7.232;2023-02-01T13:55:58;9.30;1.00
20174;DHT22;10246;50.620;7.232;2023-02-01T13:58:37;9.20;1.00
20174;DHT22;10246;50.620;7.232;2023-02-01T14:01:33;9.20;1.00
20174;DHT22;10246;50.620;7.232;2023-02-01T14:04:01;9.20;1.00
20174;DHT22;10246;50.620;7.232;2023-02-01T14:06:44;9.10;1.00
20174;DHT22;10246;50.620;7.232;2023-02-01T14:09:30;9.10;1.00
20174;DHT22;10246;50.620;7.232;2023-02-01T14:15:20;9.10;1.00
20174;DHT22;10246;50.620;7.232;2023-02-01T14:17:54;9.10;1.00
20174;DHT22;10246;50.620;7.232;2023-02-01T14:20:45;9.10;1.00
20174;DHT22;10246;50.620;7.232;2023-02-01T14:23:37;9.20;1.00
20174;DHT22;10246;50.620;7.232;2023-02-01T14:26:14;9.10;1.00
20174;DHT22;10246;50.620;7.232;2023-02-01T14:28:50;9.20;1.00
20174;DHT22;10246;50.620;7.232;2023-02-01T14:31:42;9.20;1.00
20174;DHT22;10246;50.620;7.232;2023-02-01T14:34:18;9.20;1.00
20174;DHT22;10246;50.620;7.232;2023-02-01T14:36:50;9.20;1.00
20174;DHT22;10246;50.620;7.232;2023-02-01T14:39:28;9.20;1.00
20174;DHT22;10246;50.620;7.232;2023-02-01T14:41:58;9.20;1.00
20174;DHT22;10246;50.620;7.232;2023-02-01T14:44:33;9.20;1.00
20174;DHT22;10246;50.620;7.232;2023-02-01T14:49:54;9.30;1.00
20174;DHT22;10246;50.620;7.232;2023-02-01T14:52:30;9.30;1.00
20174;DHT22;10246;50.620;7.232;2023-02-01T14:55:03;9.30;1.00
20174;DHT22;10246;50.620;7.232;2023-02-01T14:57:34;9.40;1.00
20174;DHT22;10246;50.620;7.232;2023-02-01T15:00:14;9.30;1.00
20174;DHT22;10246;50.620;7.232;2023-02-01T15:02:43;9.40;1.00
20174;DHT22;10246;50.620;7.232;2023-02-01T15:05:31;9.30;1.00
20174;DHT22;10246;50.620;7.232;2023-02-01T15:08:07;9.30;1.00
20174;DHT22;10246;50.620;7.232;2023-02-01T15:10:42;9.30;1.00
20174;DHT22;10246;50.620;7.232;2023-02-01T15:13:21;9.30;1.00
20174;DHT22;10246;50.620;7.232;2023-02-01T15:16:03;9.30;1.00
20174;DHT22;10246;50.620;7.232;2023-02-01T15:18:31;9.30;1.00
20174;DHT22;10246;50.620;7.232;2023-02-01T15:20:59;9.30;1.00
20174;DHT22;10246;50.620;7.232;2023-02-01T15:23:27;9.40;1.00
20174;DHT22;10246;50.620;7.232;2023-02-01T15:25:54;9.40;1.00
20174;DHT22;10246;50.620;7.232;2023-02-01T15:28:22;9.40;1.00
20174;DHT22;10246;50.620;7.232;2023-02-01T15:30:54;9.50;1.00
20174;DHT22;10246;50.620;7.232;2023-02-01T15:33:23;9.40;1.00
20174;DHT22;10246;50.620;7.232;2023-02-01T15:35:51;9.40;1.00
20174;DHT22;10246;50.620;7.232;2023-02-01T15:38:34;9.40;1.00
20174;DHT22;10246;50.620;7.232;2023-02-01T15:41:07;9.40;1.00
20174;DHT22;10246;50.620;7.232;2023-02-01T15:43:37;9.40;1.00
20174;DHT22;10246;50.620;7.232;2023-02-01T15:46:08;9.40;1.00
20174;DHT22;10246;50.620;7.232;2023-02-01T15:48:41;9.40;1.00
20174;DHT22;10246;50.620;7.232;2023-02-01T15:51:13;9.40;1.00
20174;DHT22;10246;50.620;7.232;2023-02-01T15:53:48;9.40;1.00
20174;DHT22;10246;50.620;7.232;2023-02-01T15:56:21;9.40;1.00
20174;DHT22;10246;50.620;7.232;2023-02-01T15:58:52;9.40;1.00
20174;DHT22;10246;50.620;7.232;2023-02-01T16:01:19;9.40;1.00
20174;DHT22;10246;50.620;7.232;2023-02-01T16:03:47;9.40;1.00
20174;DHT22;10246;50.620;7.232;2023-02-01T16:06:28;9.30;1.00
20174;DHT22;10246;50.620;7.232;2023-02-01T16:09:01;9.40;1.00
20174;DHT22;10246;50.620;7.232;2023-02-01T16:11:31;9.40;1.00
20174;DHT22;10246;50.620;7.232;2023-02-01T16:13:58;9.40;1.00
20174;DHT22;10246;50.620;7.232;2023-02-01T16:16:26;9.30;1.00
20174;DHT22;10246;50.620;7.232;2023-02-01T16:18:54;9.30;1.00
20174;DHT22;10246;50.620;7.232;2023-02-01T16:21:21;9.20;1.00
20174;DHT22;10246;50.620;7.232;2023-02-01T16:23:49;9.10;1.00
20174;DHT22;10246;50.620;7.232;2023-02-01T16:26:17;9.10;1.00
20174;DHT22;10246;50.620;7.232;2023-02-01T16:28:44;9.00;1.00
20174;DHT22;10246;50.620;7.232;2023-02-01T16:31:12;9.00;1.00
20174;DHT22;10246;50.620;7.232;2023-02-01T16:33:45;8.90;1.00
20174;DHT22;10246;50.620;7.232;2023-02-01T16:36:14;8.90;1.00
20174;DHT22;10246;50.620;7.232;2023-02-01T16:38:41;8.70;1.00
20174;DHT22;10246;50.620;7.232;2023-02-01T16:41:12;8.80;1.00